sensor_id;sensor_type;location;lat;lon;timestamp;P1;durP1;ratioP1;P2;durP2;ratioP2
52274;SDS011;38228;50.940;4.024;2022-08-01T00:02:13;7.55;;;3.40;;
52274;SDS011;38228;50.940;4.024;2022-08-01T00:04:38;7.28;;;3.25;;
52274;SDS011;38228;50.940;4.024;2022-08-01T00:07:04;5.32;;;3.10;;
52274;SDS011;38228;50.940;4.024;2022-08-01T00:09:30;6.45;;;3.30;;
52274;SDS011;38228;50.940;4.024;2022-08-01T00:11:56;4.70;;;3.08;;
52274;SDS011;38228;50.940;4.024;2022-08-01T00:14:21;6.80;;;3.22;;
52274;SDS011;38228;50.940;4.024;2022-08-01T00:16:47;7.78;;;3.13;;
52274;SDS011;38228;50.940;4.024;2022-08-01T00:19:13;5.05;;;3.70;;
52274;SDS011;38228;50.940;4.024;2022-08-01T00:21:39;8.52;;;4.07;;
52274;SDS011;38228;50.940;4.024;2022-08-01T00:24:04;8.45;;;4.10;;
52274;SDS011;38228;50.940;4.024;2022-08-01T00:26:30;8.93;;;4.40;;
52274;SDS011;38228;50.940;4.024;2022-08-01T00:28:56;8.68;;;4.32;;
52274;SDS011;38228;50.940;4.024;2022-08-01T00:31:21;10.63;;;4.30;;
52274;SDS011;38228;50.940;4.024;2022-08-01T00:33:47;12.10;;;5.78;;
52274;SDS011;38228;50.940;4.024;2022-08-01T00:36:13;10.98;;;5.22;;
52274;SDS011;38228;50.940;4.024;2022-08-01T00:38:39;13.32;;;4.85;;
52274;SDS011;38228;50.940;4.024;2022-08-01T00:41:04;10.80;;;4.55;;
52274;SDS011;38228;50.940;4.024;2022-08-01T00:43:30;10.18;;;4.65;;
52274;SDS011;38228;50.940;4.024;2022-08-01T00:45:55;13.13;;;5.10;;
52274;SDS011;38228;50.940;4.024;2022-08-01T00:48:21;9.48;;;4.47;;
52274;SDS011;38228;50.940;4.024;2022-08-01T00:50:47;10.70;;;4.57;;
52274;SDS011;38228;50.940;4.024;2022-08-01T00:53:13;10.40;;;4.38;;
52274;SDS011;38228;50.940;4.024;2022-08-01T00:55:39;12.52;;;5.38;;
52274;SDS011;38228;50.940;4.024;2022-08-01T00:58:05;11.43;;;4.97;;
52274;SDS011;38228;50.940;4.024;2022-08-01T01:00:32;10.20;;;4.88;;
52274;SDS011;38228;50.940;4.024;2022-08-01T01:02:59;14.30;;;7.15;;
52274;SDS011;38228;50.940;4.024;2022-08-01T01:05:24;13.82;;;6.50;;
52274;SDS011;38228;50.940;4.024;2022-08-01T01:10:32;16.98;;;7.50;;
52274;SDS011;38228;50.940;4.024;2022-08-01T01:13:20;20.73;;;8.48;;
52274;SDS011;38228;50.940;4.024;2022-08-01T01:16:00;15.98;;;7.40;;
52274;SDS011;38228;50.940;4.024;2022-08-01T01:18:34;17.98;;;8.13;;
52274;SDS011;38228;50.940;4.024;2022-08-01T01:26:36;16.58;;;7.05;;
52274;SDS011;38228;50.940;4.024;2022-08-01T01:29:32;20.88;;;7.57;;
52274;SDS011;38228;50.940;4.024;2022-08-01T01:32:28;20.13;;;7.88;;
52274;SDS011;38228;50.940;4.024;2022-08-01T01:34:59;22.77;;;9.52;;
52274;SDS011;38228;50.940;4.024;2022-08-01T01:37:31;16.25;;;8.43;;
52274;SDS011;38228;50.940;4.024;2022-08-01T01:39:59;18.92;;;8.77;;
52274;SDS011;38228;50.940;4.024;2022-08-01T01:42:26;18.23;;;9.20;;
52274;SDS011;38228;50.940;4.024;2022-08-01T01:44:52;22.40;;;8.20;;
52274;SDS011;38228;50.940;4.024;2022-08-01T01:47:20;20.90;;;9.57;;
52274;SDS011;38228;50.940;4.024;2022-08-01T01:49:48;22.75;;;8.52;;
52274;SDS011;38228;50.940;4.024;2022-08-01T01:52:16;17.63;;;9.07;;
52274;SDS011;38228;50.940;4.024;2022-08-01T01:54:46;22.23;;;8.30;;
52274;SDS011;38228;50.940;4.024;2022-08-01T01:57:16;17.98;;;8.20;;
52274;SDS011;38228;50.940;4.024;2022-08-01T01:59:43;20.88;;;8.80;;
52274;SDS011;38228;50.940;4.024;2022-08-01T02:02:10;17.85;;;8.85;;
52274;SDS011;38228;50.940;4.024;2022-08-01T02:04:39;18.25;;;8.98;;
52274;SDS011;38228;50.940;4.024;2022-08-01T02:07:10;19.52;;;9.05;;
52274;SDS011;38228;50.940;4.024;2022-08-01T02:09:39;17.70;;;9.68;;
52274;SDS011;38228;50.940;4.024;2022-08-01T02:12:10;22.83;;;11.02;;
52274;SDS011;38228;50.940;4.024;2022-08-01T02:14:37;21.42;;;11.32;;
52274;SDS011;38228;50.940;4.024;2022-08-01T02:17:08;20.90;;;10.90;;
52274;SDS011;38228;50.940;4.024;2022-08-01T02:19:37;22.52;;;11.20;;
52274;SDS011;38228;50.940;4.024;2022-08-01T02:22:19;21.77;;;11.60;;
52274;SDS011;38228;50.940;4.024;2022-08-01T02:25:03;23.42;;;11.82;;
52274;SDS011;38228;50.940;4.024;2022-08-01T02:27:43;28.87;;;13.23;;
52274;SDS011;38228;50.940;4.024;2022-08-01T02:30:15;30.45;;;15.70;;
52274;SDS011;38228;50.940;4.024;2022-08-01T02:32:53;26.80;;;15.30;;
52274;SDS011;38228;50.940;4.024;2022-08-01T02:35:28;31.35;;;15.40;;
52274;SDS011;38228;50.940;4.024;2022-08-01T02:37:57;36.85;;;17.35;;
52274;SDS011;38228;50.940;4.024;2022-08-01T02:40:26;35.67;;;18.10;;
52274;SDS011;38228;50.940;4.024;2022-08-01T02:42:54;45.15;;;19.08;;
52274;SDS011;38228;50.940;4.024;2022-08-01T02:45:22;36.88;;;19.95;;
52274;SDS011;38228;50.940;4.024;2022-08-01T02:47:50;42.50;;;20.40;;
52274;SDS011;38228;50.940;4.024;2022-08-01T02:50:19;39.75;;;22.05;;
52274;SDS011;38228;50.940;4.024;2022-08-01T02:52:47;45.35;;;21.13;;
52274;SDS011;38228;50.940;4.024;2022-08-01T02:55:15;41.63;;;21.40;;
52274;SDS011;38228;50.940;4.024;2022-08-01T02:57:43;43.97;;;21.75;;
52274;SDS011;38228;50.940;4.024;2022-08-01T03:00:11;37.13;;;20.55;;
52274;SDS011;38228;50.940;4.024;2022-08-01T03:02:37;52.90;;;23.58;;
52274;SDS011;38228;50.940;4.024;2022-08-01T03:05:05;45.47;;;23.83;;
52274;SDS011;38228;50.940;4.024;2022-08-01T03:07:33;51.08;;;23.30;;
52274;SDS011;38228;50.940;4.024;2022-08-01T03:09:59;45.00;;;22.33;;
52274;SDS011;38228;50.940;4.024;2022-08-01T03:12:27;43.90;;;18.95;;
52274;SDS011;38228;50.940;4.024;2022-08-01T03:14:55;35.97;;;16.38;;
52274;SDS011;38228;50.940;4.024;2022-08-01T03:17:24;39.90;;;18.83;;
52274;SDS011;38228;50.940;4.024;2022-08-01T03:19:52;46.22;;;19.13;;
52274;SDS011;38228;50.940;4.024;2022-08-01T03:22:18;49.55;;;21.35;;
52274;SDS011;38228;50.940;4.024;2022-08-01T03:24:47;46.72;;;21.42;;
52274;SDS011;38228;50.940;4.024;2022-08-01T03:27:17;48.15;;;23.23;;
52274;SDS011;38228;50.940;4.024;2022-08-01T03:29:45;46.40;;;22.38;;
52274;SDS011;38228;50.940;4.024;2022-08-01T03:32:11;48.70;;;24.58;;
52274;SDS011;38228;50.940;4.024;2022-08-01T03:34:38;62.97;;;28.75;;
52274;SDS011;38228;50.940;4.024;2022-08-01T03:37:07;64.60;;;29.40;;
52274;SDS011;38228;50.940;4.024;2022-08-01T03:39:40;55.65;;;28.02;;
52274;SDS011;38228;50.940;4.024;2022-08-01T03:42:37;64.47;;;28.15;;
52274;SDS011;38228;50.940;4.024;2022-08-01T03:45:10;60.97;;;28.45;;
52274;SDS011;38228;50.940;4.024;2022-08-01T03:47:44;58.05;;;28.17;;
52274;SDS011;38228;50.940;4.024;2022-08-01T03:50:13;52.25;;;28.20;;
52274;SDS011;38228;50.940;4.024;2022-08-01T03:52:41;46.20;;;26.50;;
52274;SDS011;38228;50.940;4.024;2022-08-01T03:55:10;50.00;;;26.73;;
52274;SDS011;38228;50.940;4.024;2022-08-01T03:57:38;52.78;;;27.65;;
52274;SDS011;38228;50.940;4.024;2022-08-01T04:00:05;48.22;;;26.45;;
52274;SDS011;38228;50.940;4.024;2022-08-01T04:02:33;42.33;;;23.60;;
52274;SDS011;38228;50.940;4.024;2022-08-01T04:04:59;39.08;;;21.85;;
52274;SDS011;38228;50.940;4.024;2022-08-01T04:07:26;37.67;;;20.58;;
52274;SDS011;38228;50.940;4.024;2022-08-01T04:09:53;34.42;;;19.55;;
52274;SDS011;38228;50.940;4.024;2022-08-01T04:12:19;29.33;;;17.23;;
52274;SDS011;38228;50.940;4.024;2022-08-01T04:14:46;35.15;;;17.27;;
52274;SDS011;38228;50.940;4.024;2022-08-01T04:17:12;33.35;;;17.05;;
52274;SDS011;38228;50.940;4.024;2022-08-01T04:19:38;32.60;;;17.27;;
52274;SDS011;38228;50.940;4.024;2022-08-01T04:22:04;28.08;;;15.43;;
52274;SDS011;38228;50.940;4.024;2022-08-01T04:24:31;26.75;;;16.23;;
52274;SDS011;38228;50.940;4.024;2022-08-01T04:27:00;31.10;;;15.02;;
52274;SDS011;38228;50.940;4.024;2022-08-01T04:29:28;22.98;;;12.18;;
52274;SDS011;38228;50.940;4.024;2022-08-01T04:31:56;20.70;;;12.30;;
52274;SDS011;38228;50.940;4.024;2022-08-01T04:34:25;22.52;;;11.60;;
52274;SDS011;38228;50.940;4.024;2022-08-01T04:36:54;18.83;;;12.00;;
52274;SDS011;38228;50.940;4.024;2022-08-01T04:39:20;25.45;;;11.57;;
52274;SDS011;38228;50.940;4.024;2022-08-01T04:41:52;24.92;;;12.07;;
52274;SDS011;38228;50.940;4.024;2022-08-01T04:44:21;23.88;;;12.35;;
52274;SDS011;38228;50.940;4.024;2022-08-01T04:46:47;19.85;;;10.82;;
52274;SDS011;38228;50.940;4.024;2022-08-01T04:49:14;19.60;;;10.50;;
52274;SDS011;38228;50.940;4.024;2022-08-01T04:51:53;16.70;;;9.50;;
52274;SDS011;38228;50.940;4.024;2022-08-01T04:54:40;20.25;;;10.20;;
52274;SDS011;38228;50.940;4.024;2022-08-01T04:57:06;20.63;;;10.30;;
52274;SDS011;38228;50.940;4.024;2022-08-01T04:59:32;15.23;;;8.85;;
52274;SDS011;38228;50.940;4.024;2022-08-01T05:02:08;16.52;;;8.50;;
52274;SDS011;38228;50.940;4.024;2022-08-01T05:04:39;12.88;;;8.23;;
52274;SDS011;38228;50.940;4.024;2022-08-01T05:07:06;14.63;;;7.88;;
52274;SDS011;38228;50.940;4.024;2022-08-01T05:09:32;18.45;;;8.10;;
52274;SDS011;38228;50.940;4.024;2022-08-01T05:11:59;15.95;;;8.18;;
52274;SDS011;38228;50.940;4.024;2022-08-01T05:14:27;13.40;;;7.10;;
52274;SDS011;38228;50.940;4.024;2022-08-01T05:16:53;12.05;;;7.25;;
52274;SDS011;38228;50.940;4.024;2022-08-01T05:19:19;11.10;;;6.97;;
52274;SDS011;38228;50.940;4.024;2022-08-01T05:21:46;11.95;;;7.30;;
52274;SDS011;38228;50.940;4.024;2022-08-01T05:24:12;15.05;;;7.25;;
52274;SDS011;38228;50.940;4.024;2022-08-01T05:26:38;11.20;;;7.25;;
52274;SDS011;38228;50.940;4.024;2022-08-01T05:29:04;13.27;;;7.07;;
52274;SDS011;38228;50.940;4.024;2022-08-01T05:31:30;12.35;;;6.70;;
52274;SDS011;38228;50.940;4.024;2022-08-01T05:33:59;13.40;;;7.53;;
52274;SDS011;38228;50.940;4.024;2022-08-01T05:36:26;14.60;;;8.32;;
52274;SDS011;38228;50.940;4.024;2022-08-01T05:38:52;14.88;;;7.18;;
52274;SDS011;38228;50.940;4.024;2022-08-01T05:41:17;13.57;;;6.97;;
52274;SDS011;38228;50.940;4.024;2022-08-01T05:43:43;16.98;;;8.00;;
52274;SDS011;38228;50.940;4.024;2022-08-01T05:46:09;12.68;;;7.28;;
52274;SDS011;38228;50.940;4.024;2022-08-01T05:48:34;12.52;;;7.38;;
52274;SDS011;38228;50.940;4.024;2022-08-01T05:51:00;12.68;;;7.00;;
52274;SDS011;38228;50.940;4.024;2022-08-01T05:53:26;11.25;;;7.10;;
52274;SDS011;38228;50.940;4.024;2022-08-01T05:55:52;12.48;;;6.47;;
52274;SDS011;38228;50.940;4.024;2022-08-01T05:58:18;9.05;;;6.47;;
52274;SDS011;38228;50.940;4.024;2022-08-01T06:00:43;10.23;;;6.72;;
52274;SDS011;38228;50.940;4.024;2022-08-01T06:03:09;9.32;;;6.03;;
52274;SDS011;38228;50.940;4.024;2022-08-01T06:05:36;10.13;;;6.50;;
52274;SDS011;38228;50.940;4.024;2022-08-01T06:08:02;9.77;;;6.15;;
52274;SDS011;38228;50.940;4.024;2022-08-01T06:10:28;13.25;;;6.32;;
52274;SDS011;38228;50.940;4.024;2022-08-01T06:12:54;9.52;;;6.07;;
52274;SDS011;38228;50.940;4.024;2022-08-01T06:15:20;10.07;;;6.03;;
52274;SDS011;38228;50.940;4.024;2022-08-01T06:17:45;9.38;;;6.05;;
52274;SDS011;38228;50.940;4.024;2022-08-01T06:20:11;8.52;;;5.20;;
52274;SDS011;38228;50.940;4.024;2022-08-01T06:22:37;10.57;;;5.55;;
52274;SDS011;38228;50.940;4.024;2022-08-01T06:25:03;9.63;;;5.20;;
52274;SDS011;38228;50.940;4.024;2022-08-01T06:27:29;8.35;;;5.03;;
52274;SDS011;38228;50.940;4.024;2022-08-01T06:29:55;7.47;;;4.47;;
52274;SDS011;38228;50.940;4.024;2022-08-01T06:32:22;5.35;;;3.97;;
52274;SDS011;38228;50.940;4.024;2022-08-01T06:34:48;7.90;;;4.72;;
52274;SDS011;38228;50.940;4.024;2022-08-01T06:37:14;6.13;;;4.10;;
52274;SDS011;38228;50.940;4.024;2022-08-01T06:39:40;7.80;;;4.00;;
52274;SDS011;38228;50.940;4.024;2022-08-01T06:42:06;5.88;;;3.50;;
52274;SDS011;38228;50.940;4.024;2022-08-01T06:44:32;7.28;;;4.18;;
52274;SDS011;38228;50.940;4.024;2022-08-01T06:46:57;4.20;;;3.08;;
52274;SDS011;38228;50.940;4.024;2022-08-01T06:49:23;4.18;;;2.90;;
52274;SDS011;38228;50.940;4.024;2022-08-01T06:51:49;4.65;;;3.33;;
52274;SDS011;38228;50.940;4.024;2022-08-01T06:54:15;4.93;;;2.60;;
52274;SDS011;38228;50.940;4.024;2022-08-01T06:56:41;4.72;;;2.03;;
52274;SDS011;38228;50.940;4.024;2022-08-01T06:59:07;2.65;;;2.13;;
52274;SDS011;38228;50.940;4.024;2022-08-01T07:01:33;2.72;;;1.67;;
52274;SDS011;38228;50.940;4.024;2022-08-01T07:03:59;3.28;;;1.92;;
52274;SDS011;38228;50.940;4.024;2022-08-01T07:06:25;3.25;;;1.80;;
52274;SDS011;38228;50.940;4.024;2022-08-01T07:08:51;2.35;;;1.73;;
52274;SDS011;38228;50.940;4.024;2022-08-01T07:11:18;3.13;;;2.00;;
52274;SDS011;38228;50.940;4.024;2022-08-01T07:13:44;2.67;;;1.52;;
52274;SDS011;38228;50.940;4.024;2022-08-01T07:16:13;3.03;;;2.03;;
52274;SDS011;38228;50.940;4.024;2022-08-01T07:18:39;2.75;;;2.08;;
52274;SDS011;38228;50.940;4.024;2022-08-01T07:21:06;4.53;;;1.92;;
52274;SDS011;38228;50.940;4.024;2022-08-01T07:23:32;4.07;;;2.22;;
52274;SDS011;38228;50.940;4.024;2022-08-01T07:25:57;3.45;;;2.00;;
52274;SDS011;38228;50.940;4.024;2022-08-01T07:28:24;2.72;;;1.58;;
52274;SDS011;38228;50.940;4.024;2022-08-01T07:30:50;4.50;;;1.92;;
52274;SDS011;38228;50.940;4.024;2022-08-01T07:33:15;3.40;;;2.05;;
52274;SDS011;38228;50.940;4.024;2022-08-01T07:35:41;3.95;;;1.67;;
52274;SDS011;38228;50.940;4.024;2022-08-01T07:38:07;5.22;;;2.22;;
52274;SDS011;38228;50.940;4.024;2022-08-01T07:40:32;5.15;;;1.80;;
52274;SDS011;38228;50.940;4.024;2022-08-01T07:42:58;1.80;;;1.50;;
52274;SDS011;38228;50.940;4.024;2022-08-01T07:45:24;3.35;;;1.73;;
52274;SDS011;38228;50.940;4.024;2022-08-01T07:47:51;3.20;;;1.50;;
52274;SDS011;38228;50.940;4.024;2022-08-01T07:50:17;3.80;;;2.72;;
52274;SDS011;38228;50.940;4.024;2022-08-01T07:52:43;4.50;;;2.72;;
52274;SDS011;38228;50.940;4.024;2022-08-01T07:55:09;2.67;;;2.38;;
52274;SDS011;38228;50.940;4.024;2022-08-01T07:57:36;4.25;;;2.05;;
52274;SDS011;38228;50.940;4.024;2022-08-01T08:00:03;3.30;;;2.90;;
52274;SDS011;38228;50.940;4.024;2022-08-01T08:02:34;5.32;;;3.60;;
52274;SDS011;38228;50.940;4.024;2022-08-01T08:05:00;5.45;;;2.88;;
52274;SDS011;38228;50.940;4.024;2022-08-01T08:07:25;2.88;;;2.05;;
52274;SDS011;38228;50.940;4.024;2022-08-01T08:09:51;3.33;;;1.42;;
52274;SDS011;38228;50.940;4.024;2022-08-01T08:12:17;3.28;;;1.80;;
52274;SDS011;38228;50.940;4.024;2022-08-01T08:14:43;2.65;;;1.35;;
52274;SDS011;38228;50.940;4.024;2022-08-01T08:17:09;2.45;;;1.50;;
52274;SDS011;38228;50.940;4.024;2022-08-01T08:19:34;2.40;;;1.70;;
52274;SDS011;38228;50.940;4.024;2022-08-01T08:22:02;3.58;;;1.90;;
52274;SDS011;38228;50.940;4.024;2022-08-01T08:24:28;2.97;;;1.83;;
52274;SDS011;38228;50.940;4.024;2022-08-01T08:26:55;3.40;;;3.10;;
52274;SDS011;38228;50.940;4.024;2022-08-01T08:29:22;6.30;;;4.10;;
52274;SDS011;38228;50.940;4.024;2022-08-01T08:31:48;5.30;;;3.90;;
52274;SDS011;38228;50.940;4.024;2022-08-01T08:34:15;5.70;;;4.38;;
52274;SDS011;38228;50.940;4.024;2022-08-01T08:36:41;5.28;;;4.78;;
52274;SDS011;38228;50.940;4.024;2022-08-01T08:39:07;7.68;;;5.75;;
52274;SDS011;38228;50.940;4.024;2022-08-01T08:41:33;10.55;;;4.70;;
52274;SDS011;38228;50.940;4.024;2022-08-01T08:44:06;6.65;;;6.05;;
52274;SDS011;38228;50.940;4.024;2022-08-01T08:46:33;7.60;;;6.85;;
52274;SDS011;38228;50.940;4.024;2022-08-01T08:49:04;10.63;;;9.27;;
52274;SDS011;38228;50.940;4.024;2022-08-01T08:51:31;13.73;;;9.80;;
52274;SDS011;38228;50.940;4.024;2022-08-01T08:53:58;8.48;;;7.57;;
52274;SDS011;38228;50.940;4.024;2022-08-01T08:56:27;9.25;;;7.75;;
52274;SDS011;38228;50.940;4.024;2022-08-01T08:58:58;8.45;;;7.18;;
52274;SDS011;38228;50.940;4.024;2022-08-01T09:01:24;7.63;;;6.63;;
52274;SDS011;38228;50.940;4.024;2022-08-01T09:03:50;6.03;;;5.43;;
52274;SDS011;38228;50.940;4.024;2022-08-01T09:06:16;6.25;;;4.63;;
52274;SDS011;38228;50.940;4.024;2022-08-01T09:08:42;3.80;;;3.47;;
52274;SDS011;38228;50.940;4.024;2022-08-01T09:11:08;3.75;;;3.38;;
52274;SDS011;38228;50.940;4.024;2022-08-01T09:13:34;3.38;;;2.80;;
52274;SDS011;38228;50.940;4.024;2022-08-01T09:16:00;3.35;;;2.83;;
52274;SDS011;38228;50.940;4.024;2022-08-01T09:18:30;3.08;;;1.80;;
52274;SDS011;38228;50.940;4.024;2022-08-01T09:23:32;2.70;;;1.85;;
52274;SDS011;38228;50.940;4.024;2022-08-01T09:25:59;1.70;;;1.60;;
52274;SDS011;38228;50.940;4.024;2022-08-01T09:28:28;2.22;;;1.73;;
52274;SDS011;38228;50.940;4.024;2022-08-01T09:30:58;1.38;;;0.90;;
52274;SDS011;38228;50.940;4.024;2022-08-01T09:33:46;2.65;;;1.00;;
52274;SDS011;38228;50.940;4.024;2022-08-01T09:36:22;1.27;;;0.77;;
52274;SDS011;38228;50.940;4.024;2022-08-01T09:38:50;1.42;;;0.65;;
52274;SDS011;38228;50.940;4.024;2022-08-01T09:41:17;1.13;;;0.55;;
52274;SDS011;38228;50.940;4.024;2022-08-01T09:43:55;2.35;;;0.77;;
52274;SDS011;38228;50.940;4.024;2022-08-01T09:46:20;2.00;;;0.60;;
52274;SDS011;38228;50.940;4.024;2022-08-01T09:48:59;2.33;;;0.77;;
52274;SDS011;38228;50.940;4.024;2022-08-01T09:51:33;3.28;;;0.80;;
52274;SDS011;38228;50.940;4.024;2022-08-01T09:54:04;1.52;;;0.60;;
52274;SDS011;38228;50.940;4.024;2022-08-01T09:56:38;2.53;;;0.65;;
52274;SDS011;38228;50.940;4.024;2022-08-01T09:59:10;3.70;;;0.75;;
52274;SDS011;38228;50.940;4.024;2022-08-01T10:01:43;1.13;;;0.70;;
52274;SDS011;38228;50.940;4.024;2022-08-01T10:04:12;1.58;;;0.50;;
52274;SDS011;38228;50.940;4.024;2022-08-01T10:06:43;3.20;;;0.60;;
52274;SDS011;38228;50.940;4.024;2022-08-01T10:09:10;1.73;;;0.60;;
52274;SDS011;38228;50.940;4.024;2022-08-01T10:11:38;0.85;;;0.52;;
52274;SDS011;38228;50.940;4.024;2022-08-01T10:14:06;2.22;;;0.60;;
52274;SDS011;38228;50.940;4.024;2022-08-01T10:16:34;2.70;;;0.60;;
52274;SDS011;38228;50.940;4.024;2022-08-01T10:19:02;1.25;;;0.80;;
52274;SDS011;38228;50.940;4.024;2022-08-01T10:21:32;1.10;;;0.70;;
52274;SDS011;38228;50.940;4.024;2022-08-01T10:23:59;1.60;;;0.70;;
52274;SDS011;38228;50.940;4.024;2022-08-01T10:26:26;1.92;;;0.70;;
52274;SDS011;38228;50.940;4.024;2022-08-01T10:28:57;1.08;;;0.82;;
52274;SDS011;38228;50.940;4.024;2022-08-01T10:31:23;0.70;;;0.52;;
52274;SDS011;38228;50.940;4.024;2022-08-01T10:33:49;4.15;;;1.10;;
52274;SDS011;38228;50.940;4.024;2022-08-01T10:36:19;2.67;;;1.70;;
52274;SDS011;38228;50.940;4.024;2022-08-01T10:38:46;2.28;;;1.17;;
52274;SDS011;38228;50.940;4.024;2022-08-01T10:41:13;2.70;;;1.98;;
52274;SDS011;38228;50.940;4.024;2022-08-01T10:43:42;3.45;;;2.13;;
52274;SDS011;38228;50.940;4.024;2022-08-01T10:46:08;4.13;;;1.85;;
52274;SDS011;38228;50.940;4.024;2022-08-01T10:48:56;3.22;;;1.67;;
52274;SDS011;38228;50.940;4.024;2022-08-01T10:51:23;3.95;;;3.03;;
52274;SDS011;38228;50.940;4.024;2022-08-01T10:53:52;5.07;;;2.90;;
52274;SDS011;38228;50.940;4.024;2022-08-01T10:56:19;3.42;;;2.60;;
52274;SDS011;38228;50.940;4.024;2022-08-01T10:58:47;3.75;;;2.60;;
52274;SDS011;38228;50.940;4.024;2022-08-01T11:06:41;4.03;;;1.80;;
52274;SDS011;38228;50.940;4.024;2022-08-01T11:09:23;7.25;;;1.88;;
52274;SDS011;38228;50.940;4.024;2022-08-01T11:14:30;6.18;;;2.92;;
52274;SDS011;38228;50.940;4.024;2022-08-01T11:16:57;6.13;;;3.00;;
52274;SDS011;38228;50.940;4.024;2022-08-01T11:20:16;4.85;;;3.30;;
52274;SDS011;38228;50.940;4.024;2022-08-01T11:30:41;5.93;;;3.25;;
52274;SDS011;38228;50.940;4.024;2022-08-01T11:33:10;2.97;;;2.50;;
52274;SDS011;38228;50.940;4.024;2022-08-01T11:35:37;2.25;;;2.05;;
52274;SDS011;38228;50.940;4.024;2022-08-01T11:38:23;2.95;;;2.10;;
52274;SDS011;38228;50.940;4.024;2022-08-01T11:49:22;2.47;;;1.65;;
52274;SDS011;38228;50.940;4.024;2022-08-01T11:51:49;2.88;;;1.45;;
52274;SDS011;38228;50.940;4.024;2022-08-01T11:54:31;1.85;;;1.35;;
52274;SDS011;38228;50.940;4.024;2022-08-01T11:57:03;3.63;;;1.30;;
52274;SDS011;38228;50.940;4.024;2022-08-01T11:59:44;3.60;;;1.45;;
52274;SDS011;38228;50.940;4.024;2022-08-01T12:02:16;2.25;;;1.67;;
52274;SDS011;38228;50.940;4.024;2022-08-01T12:04:50;2.58;;;1.40;;
52274;SDS011;38228;50.940;4.024;2022-08-01T12:07:40;3.33;;;1.42;;
52274;SDS011;38228;50.940;4.024;2022-08-01T12:10:08;7.15;;;1.63;;
52274;SDS011;38228;50.940;4.024;2022-08-01T12:12:42;3.90;;;1.30;;
52274;SDS011;38228;50.940;4.024;2022-08-01T12:15:10;2.83;;;1.50;;
52274;SDS011;38228;50.940;4.024;2022-08-01T12:17:37;3.03;;;1.45;;
52274;SDS011;38228;50.940;4.024;2022-08-01T12:20:07;1.83;;;1.38;;
52274;SDS011;38228;50.940;4.024;2022-08-01T12:22:36;2.35;;;1.65;;
52274;SDS011;38228;50.940;4.024;2022-08-01T12:25:06;2.67;;;1.90;;
52274;SDS011;38228;50.940;4.024;2022-08-01T12:27:35;3.65;;;1.30;;
52274;SDS011;38228;50.940;4.024;2022-08-01T12:30:06;2.42;;;1.50;;
52274;SDS011;38228;50.940;4.024;2022-08-01T12:32:34;2.50;;;1.40;;
52274;SDS011;38228;50.940;4.024;2022-08-01T12:35:11;2.20;;;1.30;;
52274;SDS011;38228;50.940;4.024;2022-08-01T12:37:43;1.80;;;1.13;;
52274;SDS011;38228;50.940;4.024;2022-08-01T12:40:16;1.90;;;1.10;;
52274;SDS011;38228;50.940;4.024;2022-08-01T12:42:51;4.60;;;1.00;;
52274;SDS011;38228;50.940;4.024;2022-08-01T12:45:19;2.47;;;0.90;;
52274;SDS011;38228;50.940;4.024;2022-08-01T12:47:47;1.42;;;0.80;;
52274;SDS011;38228;50.940;4.024;2022-08-01T12:50:15;2.38;;;0.88;;
52274;SDS011;38228;50.940;4.024;2022-08-01T12:52:45;2.40;;;0.90;;
52274;SDS011;38228;50.940;4.024;2022-08-01T12:55:13;3.15;;;1.13;;
52274;SDS011;38228;50.940;4.024;2022-08-01T12:57:44;2.17;;;1.13;;
52274;SDS011;38228;50.940;4.024;2022-08-01T13:02:43;1.90;;;0.90;;
52274;SDS011;38228;50.940;4.024;2022-08-01T13:05:12;3.85;;;1.17;;
52274;SDS011;38228;50.940;4.024;2022-08-01T13:07:46;2.00;;;1.00;;
52274;SDS011;38228;50.940;4.024;2022-08-01T13:10:24;2.65;;;0.93;;
52274;SDS011;38228;50.940;4.024;2022-08-01T13:12:51;3.53;;;1.10;;
52274;SDS011;38228;50.940;4.024;2022-08-01T13:15:26;5.40;;;0.98;;
52274;SDS011;38228;50.940;4.024;2022-08-01T13:17:57;5.68;;;1.40;;
52274;SDS011;38228;50.940;4.024;2022-08-01T13:20:28;1.55;;;0.90;;
52274;SDS011;38228;50.940;4.024;2022-08-01T13:23:13;3.20;;;1.20;;
52274;SDS011;38228;50.940;4.024;2022-08-01T13:25:47;3.40;;;0.95;;
52274;SDS011;38228;50.940;4.024;2022-08-01T13:28:18;4.15;;;1.02;;
52274;SDS011;38228;50.940;4.024;2022-08-01T13:36:08;1.88;;;1.10;;
52274;SDS011;38228;50.940;4.024;2022-08-01T13:38:34;1.33;;;1.10;;
52274;SDS011;38228;50.940;4.024;2022-08-01T13:41:19;2.65;;;1.27;;
52274;SDS011;38228;50.940;4.024;2022-08-01T13:43:44;1.67;;;1.17;;
52274;SDS011;38228;50.940;4.024;2022-08-01T13:46:10;1.90;;;0.80;;
52274;SDS011;38228;50.940;4.024;2022-08-01T13:48:36;2.15;;;0.80;;
52274;SDS011;38228;50.940;4.024;2022-08-01T13:51:02;2.65;;;0.88;;
52274;SDS011;38228;50.940;4.024;2022-08-01T13:53:28;3.55;;;1.05;;
52274;SDS011;38228;50.940;4.024;2022-08-01T13:55:54;3.38;;;1.20;;
52274;SDS011;38228;50.940;4.024;2022-08-01T13:58:20;2.47;;;0.90;;
52274;SDS011;38228;50.940;4.024;2022-08-01T14:00:45;1.92;;;1.10;;
52274;SDS011;38228;50.940;4.024;2022-08-01T14:03:11;2.08;;;1.20;;
52274;SDS011;38228;50.940;4.024;2022-08-01T14:05:38;4.10;;;1.30;;
52274;SDS011;38228;50.940;4.024;2022-08-01T14:08:04;1.95;;;1.00;;
52274;SDS011;38228;50.940;4.024;2022-08-01T14:10:31;2.90;;;1.13;;
52274;SDS011;38228;50.940;4.024;2022-08-01T14:12:57;3.90;;;1.05;;
52274;SDS011;38228;50.940;4.024;2022-08-01T14:15:23;5.93;;;1.42;;
52274;SDS011;38228;50.940;4.024;2022-08-01T14:17:50;5.15;;;1.23;;
52274;SDS011;38228;50.940;4.024;2022-08-01T14:20:16;2.47;;;1.10;;
52274;SDS011;38228;50.940;4.024;2022-08-01T14:22:44;6.82;;;1.30;;
52274;SDS011;38228;50.940;4.024;2022-08-01T14:25:11;7.88;;;1.23;;
52274;SDS011;38228;50.940;4.024;2022-08-01T14:27:37;4.68;;;1.30;;
52274;SDS011;38228;50.940;4.024;2022-08-01T14:30:05;2.80;;;1.30;;
52274;SDS011;38228;50.940;4.024;2022-08-01T14:32:31;3.75;;;1.15;;
52274;SDS011;38228;50.940;4.024;2022-08-01T14:34:58;1.92;;;1.10;;
52274;SDS011;38228;50.940;4.024;2022-08-01T14:37:27;2.88;;;0.90;;
52274;SDS011;38228;50.940;4.024;2022-08-01T14:39:54;3.53;;;1.00;;
52274;SDS011;38228;50.940;4.024;2022-08-01T14:42:20;4.53;;;1.30;;
52274;SDS011;38228;50.940;4.024;2022-08-01T14:44:46;2.92;;;1.02;;
52274;SDS011;38228;50.940;4.024;2022-08-01T14:47:12;2.53;;;0.77;;
52274;SDS011;38228;50.940;4.024;2022-08-01T14:49:37;2.63;;;1.00;;
52274;SDS011;38228;50.940;4.024;2022-08-01T14:52:03;3.03;;;1.00;;
52274;SDS011;38228;50.940;4.024;2022-08-01T14:54:29;2.88;;;1.20;;
52274;SDS011;38228;50.940;4.024;2022-08-01T14:56:55;2.28;;;0.95;;
52274;SDS011;38228;50.940;4.024;2022-08-01T14:59:20;3.22;;;0.70;;
52274;SDS011;38228;50.940;4.024;2022-08-01T15:01:46;2.28;;;0.82;;
52274;SDS011;38228;50.940;4.024;2022-08-01T15:04:12;9.25;;;0.82;;
52274;SDS011;38228;50.940;4.024;2022-08-01T15:06:38;1.92;;;0.80;;
52274;SDS011;38228;50.940;4.024;2022-08-01T15:09:03;1.67;;;1.00;;
52274;SDS011;38228;50.940;4.024;2022-08-01T15:11:29;4.30;;;0.80;;
52274;SDS011;38228;50.940;4.024;2022-08-01T15:13:55;2.08;;;0.80;;
52274;SDS011;38228;50.940;4.024;2022-08-01T15:16:39;2.33;;;1.10;;
52274;SDS011;38228;50.940;4.024;2022-08-01T15:19:05;4.43;;;1.00;;
52274;SDS011;38228;50.940;4.024;2022-08-01T15:21:31;1.08;;;0.60;;
52274;SDS011;38228;50.940;4.024;2022-08-01T15:23:56;2.53;;;0.70;;
52274;SDS011;38228;50.940;4.024;2022-08-01T15:26:22;2.97;;;0.70;;
52274;SDS011;38228;50.940;4.024;2022-08-01T15:28:48;2.03;;;0.70;;
52274;SDS011;38228;50.940;4.024;2022-08-01T15:31:13;3.22;;;0.60;;
52274;SDS011;38228;50.940;4.024;2022-08-01T15:33:39;2.25;;;0.70;;